Haifa, Israel
Current Conditions -  °F | °C
As of 11:50 AM on Sunday 25 Jan 2015 (Local Time) from LLHA Reporting Station
Clear Clear  
Wind Chill: 68°   Ceiling: Unl
Heat Index: 68°   Visibility: 6mi
Dew Point: 41°   Wind: 9mph
Humidity: 37%   Direction: 130°SE
Pressure: 30"   Gusts: NA
Location:  32.82°N, 34.99°E
Report Text: LLHA 250950Z 13008KT CAVOK 20/05 Q1016
Loading
Personal Weather Stations






























Interactive Weather Map New forecast layout! Learn more

10-Day Weather Forecast

Advertisements
Track Severe Weather on mobile